SAS467 ESSA-LFMN
Flight info
| Callsign | SAS467 |
|---|---|
| Flight time | N/A |
| Altitude | 38000 |
| Route | NOSLI N850 ABAMA DCT POKEN Z212 BANUB DCT CIPPI/N0445F370 DCT MAREM/N0448F380 DCT RUDAP DCT EBEDA DCT BADVI DCT BERAS DCT OLPIX/N0450F390 DCT EKPEB DCT UNTAD DCT LUSIL DCT EVANO DCT ENOBA/N0340F190 Z185 BORDI |
| Aircraft | A20N/M-SDE2E3FGHIRWXY/LB1 |
Departure
| Time | N/A |
|---|---|
| Airport | Stockholm-Arlanda Airport (ESSA) |
Arrival
| Time | 2026-05-07 20:05 |
|---|---|
| Airport | Nice-Côte d'Azur Airport (LFMN) |
| Time | Latitude | Longitude | Altitude | Speed | Heading |
|---|---|---|---|---|---|
| 2026-05-07 19:36 | 45.42457 | 8.92473 | 38000 ft | 447 kts | 233° |
| 2026-05-07 19:36 | 45.40583 | 8.88940 | 38000 ft | 447 kts | 233° |
| 2026-05-07 19:37 | 45.36788 | 8.81910 | 37998 ft | 447 kts | 228° |
| 2026-05-07 19:37 | 45.33784 | 8.77911 | 37995 ft | 447 kts | 217° |
| 2026-05-07 19:38 | 45.26368 | 8.72783 | 37992 ft | 447 kts | 197° |
| 2026-05-07 19:38 | 45.20440 | 8.70173 | 37992 ft | 447 kts | 198° |
| 2026-05-07 19:39 | 45.14493 | 8.67531 | 37995 ft | 448 kts | 198° |
| 2026-05-07 19:39 | 45.09538 | 8.65335 | 37935 ft | 449 kts | 197° |
| 2026-05-07 19:40 | 45.06547 | 8.64013 | 37693 ft | 448 kts | 197° |
| 2026-05-07 19:40 | 45.03567 | 8.62697 | 37441 ft | 447 kts | 197° |
| 2026-05-07 19:40 | 45.00629 | 8.61401 | 37199 ft | 447 kts | 197° |
| 2026-05-07 19:40 | 44.97646 | 8.60087 | 36949 ft | 448 kts | 197° |
| 2026-05-07 19:41 | 44.94667 | 8.58776 | 36663 ft | 448 kts | 197° |
| 2026-05-07 19:41 | 44.91676 | 8.57461 | 36108 ft | 449 kts | 197° |
| 2026-05-07 19:41 | 44.88739 | 8.56171 | 35790 ft | 444 kts | 197° |
| 2026-05-07 19:41 | 44.85783 | 8.54874 | 35541 ft | 445 kts | 197° |
| 2026-05-07 19:42 | 44.82809 | 8.53571 | 35293 ft | 449 kts | 197° |
| 2026-05-07 19:42 | 44.79819 | 8.52262 | 35043 ft | 450 kts | 197° |
| 2026-05-07 19:42 | 44.76830 | 8.50955 | 34790 ft | 450 kts | 197° |
| 2026-05-07 19:42 | 44.73833 | 8.49646 | 34544 ft | 451 kts | 197° |
| 2026-05-07 19:43 | 44.70858 | 8.48348 | 34297 ft | 452 kts | 197° |
| 2026-05-07 19:43 | 44.67848 | 8.47036 | 33908 ft | 454 kts | 197° |
| 2026-05-07 19:43 | 44.64820 | 8.45717 | 33189 ft | 457 kts | 197° |
| 2026-05-07 19:43 | 44.61748 | 8.44382 | 32244 ft | 463 kts | 197° |
| 2026-05-07 19:44 | 44.58672 | 8.43046 | 31471 ft | 463 kts | 197° |
| 2026-05-07 19:44 | 44.55626 | 8.41724 | 30653 ft | 464 kts | 197° |
| 2026-05-07 19:44 | 44.52520 | 8.40378 | 29791 ft | 465 kts | 197° |
| 2026-05-07 19:44 | 44.49445 | 8.39046 | 29258 ft | 458 kts | 197° |
| 2026-05-07 19:45 | 44.46422 | 8.37738 | 28807 ft | 450 kts | 197° |
| 2026-05-07 19:45 | 44.43469 | 8.36462 | 28231 ft | 445 kts | 197° |
| 2026-05-07 19:45 | 44.40517 | 8.35188 | 27640 ft | 441 kts | 197° |
| 2026-05-07 19:45 | 44.37586 | 8.33924 | 27071 ft | 436 kts | 197° |
| 2026-05-07 19:46 | 44.34695 | 8.32678 | 26511 ft | 432 kts | 197° |
| 2026-05-07 19:46 | 44.31915 | 8.31149 | 25947 ft | 427 kts | 208° |
| 2026-05-07 19:46 | 44.29494 | 8.28813 | 25386 ft | 422 kts | 222° |
| 2026-05-07 19:46 | 44.27565 | 8.25825 | 24837 ft | 417 kts | 235° |
| 2026-05-07 19:47 | 44.25920 | 8.22493 | 24274 ft | 413 kts | 236° |
| 2026-05-07 19:47 | 44.24299 | 8.19203 | 23729 ft | 409 kts | 236° |
| 2026-05-07 19:47 | 44.22679 | 8.15929 | 23146 ft | 406 kts | 236° |
| 2026-05-07 19:47 | 44.21101 | 8.12748 | 22632 ft | 402 kts | 235° |
| 2026-05-07 19:48 | 44.19518 | 8.09564 | 22103 ft | 398 kts | 235° |
| 2026-05-07 19:48 | 44.17944 | 8.06404 | 21562 ft | 394 kts | 235° |
| 2026-05-07 19:48 | 44.16379 | 8.03267 | 21030 ft | 391 kts | 235° |
| 2026-05-07 19:48 | 44.14834 | 8.00171 | 20420 ft | 389 kts | 235° |
| 2026-05-07 19:49 | 44.13306 | 7.97113 | 19934 ft | 385 kts | 235° |
| 2026-05-07 19:49 | 44.11784 | 7.94070 | 19419 ft | 381 kts | 235° |
| 2026-05-07 19:49 | 44.10270 | 7.91048 | 18896 ft | 378 kts | 235° |
| 2026-05-07 19:49 | 44.08773 | 7.88061 | 18401 ft | 374 kts | 235° |
| 2026-05-07 19:50 | 44.07292 | 7.85110 | 17881 ft | 371 kts | 235° |
| 2026-05-07 19:50 | 44.05835 | 7.82211 | 17391 ft | 367 kts | 235° |
| 2026-05-07 19:50 | 44.04378 | 7.79312 | 16859 ft | 365 kts | 235° |
| 2026-05-07 19:50 | 44.02887 | 7.76459 | 16591 ft | 367 kts | 229° |
| 2026-05-07 19:51 | 44.00911 | 7.74190 | 16346 ft | 372 kts | 210° |
| 2026-05-07 19:51 | 43.98573 | 7.72643 | 16104 ft | 370 kts | 204° |
| 2026-05-07 19:51 | 43.96203 | 7.71255 | 15849 ft | 368 kts | 202° |
| 2026-05-07 19:51 | 43.93862 | 7.69911 | 15601 ft | 366 kts | 203° |
| 2026-05-07 19:52 | 43.91513 | 7.68547 | 15350 ft | 363 kts | 203° |
| 2026-05-07 19:52 | 43.89214 | 7.67195 | 15099 ft | 361 kts | 203° |
| 2026-05-07 19:52 | 43.86900 | 7.65820 | 14841 ft | 359 kts | 204° |
| 2026-05-07 19:52 | 43.84597 | 7.64447 | 14599 ft | 359 kts | 204° |
| 2026-05-07 19:53 | 43.82308 | 7.63080 | 14345 ft | 356 kts | 204° |
| 2026-05-07 19:53 | 43.80070 | 7.61737 | 14102 ft | 354 kts | 204° |
| 2026-05-07 19:53 | 43.77823 | 7.60367 | 13852 ft | 353 kts | 204° |
| 2026-05-07 19:53 | 43.75571 | 7.58994 | 13601 ft | 351 kts | 204° |
| 2026-05-07 19:54 | 43.73333 | 7.57630 | 13350 ft | 350 kts | 204° |
| 2026-05-07 19:54 | 43.71105 | 7.56273 | 13100 ft | 349 kts | 204° |
| 2026-05-07 19:54 | 43.68877 | 7.54917 | 12849 ft | 348 kts | 204° |
| 2026-05-07 19:54 | 43.66696 | 7.53590 | 12602 ft | 346 kts | 204° |
| 2026-05-07 19:55 | 43.64492 | 7.52250 | 12351 ft | 345 kts | 204° |
| 2026-05-07 19:55 | 43.62293 | 7.50913 | 12100 ft | 344 kts | 204° |
| 2026-05-07 19:55 | 43.60101 | 7.49582 | 11851 ft | 342 kts | 204° |
| 2026-05-07 19:55 | 43.57923 | 7.48259 | 11596 ft | 341 kts | 204° |
| 2026-05-07 19:56 | 43.55773 | 7.46955 | 11344 ft | 340 kts | 204° |
| 2026-05-07 19:56 | 43.53631 | 7.45657 | 11099 ft | 332 kts | 204° |
| 2026-05-07 19:56 | 43.51541 | 7.44391 | 10853 ft | 322 kts | 204° |
| 2026-05-07 19:56 | 43.49513 | 7.43164 | 10594 ft | 313 kts | 204° |
| 2026-05-07 19:57 | 43.47572 | 7.41990 | 10345 ft | 305 kts | 204° |
| 2026-05-07 19:57 | 43.45646 | 7.40827 | 10093 ft | 296 kts | 204° |
| 2026-05-07 19:57 | 43.43793 | 7.39709 | 9767 ft | 286 kts | 204° |
| 2026-05-07 19:57 | 43.41972 | 7.38611 | 9204 ft | 284 kts | 204° |
| 2026-05-07 19:58 | 43.40197 | 7.37504 | 8637 ft | 282 kts | 210° |
| 2026-05-07 19:58 | 43.38763 | 7.35730 | 8037 ft | 278 kts | 237° |
| 2026-05-07 19:58 | 43.38110 | 7.33310 | 7724 ft | 265 kts | 264° |
| 2026-05-07 19:58 | 43.38119 | 7.30765 | 7000 ft | 270 kts | 273° |
| 2026-05-07 19:59 | 43.38218 | 7.28168 | 6365 ft | 272 kts | 273° |
| 2026-05-07 19:59 | 43.38433 | 7.25637 | 5819 ft | 269 kts | 288° |
| 2026-05-07 19:59 | 43.39382 | 7.23450 | 5235 ft | 267 kts | 316° |
| 2026-05-07 19:59 | 43.40819 | 7.21835 | 4720 ft | 264 kts | 324° |
| 2026-05-07 20:00 | 43.42277 | 7.20412 | 4557 ft | 248 kts | 324° |
| 2026-05-07 20:00 | 43.43648 | 7.19062 | 4193 ft | 242 kts | 323° |
| 2026-05-07 20:00 | 43.45004 | 7.17671 | 3485 ft | 251 kts | 322° |
| 2026-05-07 20:00 | 43.46511 | 7.16504 | 3127 ft | 243 kts | 342° |
| 2026-05-07 20:01 | 43.48121 | 7.16173 | 3012 ft | 226 kts | 357° |
| 2026-05-07 20:01 | 43.49620 | 7.16053 | 2998 ft | 204 kts | 355° |
| 2026-05-07 20:01 | 43.50970 | 7.15922 | 3008 ft | 195 kts | 355° |
| 2026-05-07 20:01 | 43.52339 | 7.15776 | 2988 ft | 195 kts | 355° |
| 2026-05-07 20:02 | 43.53584 | 7.15643 | 2918 ft | 186 kts | 355° |
| 2026-05-07 20:02 | 43.54843 | 7.15509 | 2836 ft | 175 kts | 355° |
| 2026-05-07 20:02 | 43.56012 | 7.15386 | 2700 ft | 167 kts | 355° |
| 2026-05-07 20:02 | 43.57134 | 7.15269 | 2529 ft | 160 kts | 355° |
| 2026-05-07 20:03 | 43.58270 | 7.15150 | 2203 ft | 165 kts | 355° |
| 2026-05-07 20:03 | 43.59408 | 7.15041 | 1994 ft | 162 kts | 358° |
| 2026-05-07 20:03 | 43.60559 | 7.15097 | 1818 ft | 165 kts | 6° |
| 2026-05-07 20:03 | 43.61639 | 7.15544 | 1696 ft | 166 kts | 29° |
| 2026-05-07 20:04 | 43.62506 | 7.16579 | 1581 ft | 166 kts | 49° |
| 2026-05-07 20:04 | 43.63231 | 7.17863 | 1334 ft | 173 kts | 49° |
| 2026-05-07 20:04 | 43.64125 | 7.18970 | 841 ft | 174 kts | 42° |
| 2026-05-07 20:04 | 43.64994 | 7.20157 | 233 ft | 178 kts | 44° |
| 2026-05-07 20:05 | 43.65831 | 7.21299 | 21 ft | 145 kts | 44° |
| 2026-05-07 20:05 | 43.66256 | 7.21884 | 20 ft | 57 kts | 45° |
| 2026-05-07 20:05 | 43.66449 | 7.22124 | 20 ft | 18 kts | 7° |
| 2026-05-07 20:05 | 43.66545 | 7.22034 | 17 ft | 0 kts | 302° |
| 2026-05-07 20:06 | 43.66546 | 7.22031 | 17 ft | 0 kts | 302° |
| 2026-05-07 20:06 | 43.66553 | 7.21980 | 18 ft | 8 kts | 255° |
| 2026-05-07 20:06 | 43.66508 | 7.21906 | 18 ft | 11 kts | 225° |
| 2026-05-07 20:07 | 43.66449 | 7.21823 | 20 ft | 13 kts | 225° |
| 2026-05-07 20:07 | 43.66373 | 7.21722 | 17 ft | 17 kts | 224° |
| 2026-05-07 20:07 | 43.66360 | 7.21705 | 17 ft | 0 kts | 224° |
| 2026-05-07 20:07 | 43.66339 | 7.21675 | 17 ft | 9 kts | 224° |
| 2026-05-07 20:08 | 43.66336 | 7.21672 | 17 ft | 0 kts | 224° |
| 2026-05-07 20:08 | 43.66325 | 7.21653 | 17 ft | 8 kts | 242° |
| 2026-05-07 20:08 | 43.66347 | 7.21577 | 18 ft | 10 kts | 312° |
| 2026-05-07 20:09 | 43.66371 | 7.21484 | 18 ft | 12 kts | 263° |
| 2026-05-07 20:09 | 43.66358 | 7.21378 | 17 ft | 0 kts | 260° |
| 2026-05-07 20:09 | 43.66358 | 7.21358 | 18 ft | 6 kts | 282° |
| 2026-05-07 20:10 | 43.66410 | 7.21340 | 19 ft | 3 kts | 342° |
| 2026-05-07 20:10 | 43.66433 | 7.21328 | 23 ft | 0 kts | 339° |